PROFILE

 METAR AND TAF INFORMATION
ADDS - METARS form results

(1634 UTC 16 September 2022)
http://aviationweather.gov/metar/data/
 
LEPA 161630Z 34005G15KT 9999 FEW025 FEW045TCU 27/22 Q1011 NOSIG
LEPA 161600Z 33005KT 290V010 9999 FEW025 FEW045CB 27/21 Q1011 TEMPO 4000 TSRA
TAF AMD LEPA 161341Z 1613/1712 07008KT 9999 FEW040 TX29/1613Z TN19/1706Z PROB30 TEMPO 1613/1618 20008KT PROB30 TEMPO 1613/1618 VRB10G20KT 4000 TSRA FEW040CB PROB40 TEMPO 1613/1616 2000 TS +SHRA SCT030CB TEMPO 1700/1707 VRB04KT PROB40 TEMPO 1702/1706 3000 TSRA SCT020CB 

 AIRPORT MAP

 RUNWAY INFORMATION
Runway 06R Runway length 9842 ft Runway width 148 ft
Runway elevation 24 ft Runway displaced threshold 1345 ft Runway heading 59
Runway 24L Runway length 9842 ft Runway width 148 ft
Runway elevation 8 ft Runway displaced threshold 0 ft Runway heading 239
Runway 06L Runway length 10728 ft Runway width 148 ft
Runway elevation 15 ft Runway displaced threshold 0 ft Runway heading 59
Runway 24R Runway length 10728 ft Runway width 148 ft
Runway elevation 8 ft Runway displaced threshold 230 ft Runway heading 239

 AIRPORT FREQUENCIES
Type APP Name APP Frequency 118.95 MHZ
Type ATIS Name ATIS Frequency 119.25 MHZ
Type CLD Name CLNC DEL Frequency 121.6 MHZ
Type GND Name GND Frequency 121.7 MHZ
Type OPS Name OPS Frequency 130.25 MHZ
Type TWR Name TWR Frequency 118.3 MHZ

 AIRPORT NEAR NAVIGATION AIDS